createdAt,value
2023-08-29T00:00:12.927Z,27.61
2023-08-29T00:01:14.805Z,27.59
2023-08-29T00:02:16.691Z,27.58
2023-08-29T00:03:18.620Z,27.58
2023-08-29T00:04:20.455Z,27.56
2023-08-29T00:05:22.379Z,27.57
2023-08-29T00:06:24.326Z,27.56
2023-08-29T00:07:26.167Z,27.56
2023-08-29T00:08:28.051Z,27.55
2023-08-29T00:09:29.889Z,27.54
2023-08-29T00:10:31.850Z,27.54
2023-08-29T00:11:33.690Z,27.49
2023-08-29T00:12:35.647Z,27.49
2023-08-29T00:13:37.513Z,27.52
2023-08-29T00:14:39.241Z,27.53
2023-08-29T00:15:41.106Z,27.52
2023-08-29T00:16:43.015Z,27.52
2023-08-29T00:17:44.907Z,27.53
2023-08-29T00:18:46.912Z,27.53
2023-08-29T00:19:48.769Z,27.54
2023-08-29T00:20:50.606Z,27.54
2023-08-29T00:21:52.455Z,27.53
2023-08-29T00:22:54.360Z,27.54
2023-08-29T00:23:56.242Z,27.52
2023-08-29T00:24:58.099Z,27.52
2023-08-29T00:25:59.957Z,27.53
2023-08-29T00:27:01.784Z,27.46
2023-08-29T00:28:03.922Z,27.52
2023-08-29T00:29:06.071Z,27.52
2023-08-29T00:30:08.229Z,27.51
2023-08-29T00:31:10.064Z,27.52
2023-08-29T00:32:11.901Z,27.52
2023-08-29T00:33:13.753Z,27.52
2023-08-29T00:34:15.648Z,27.51
2023-08-29T00:35:17.488Z,27.50
2023-08-29T00:36:19.430Z,27.50
2023-08-29T00:37:21.285Z,27.50
2023-08-29T00:38:23.108Z,27.49
2023-08-29T00:39:24.991Z,27.49
2023-08-29T00:40:27.355Z,27.49
2023-08-29T00:41:29.180Z,27.49
2023-08-29T00:42:31.039Z,27.47
2023-08-29T00:43:32.900Z,27.48
2023-08-29T00:44:34.756Z,27.45
2023-08-29T00:45:36.664Z,27.44
2023-08-29T00:46:38.754Z,27.42
2023-08-29T00:47:40.647Z,27.41
2023-08-29T00:48:42.515Z,27.40
2023-08-29T00:49:44.392Z,27.39
2023-08-29T00:50:46.334Z,27.37
2023-08-29T00:51:48.168Z,27.37
2023-08-29T00:52:50.004Z,27.36
2023-08-29T00:53:51.852Z,27.36
2023-08-29T00:54:53.733Z,27.36
2023-08-29T00:55:55.463Z,27.33
2023-08-29T00:56:57.394Z,27.31
2023-08-29T00:57:59.236Z,27.32
2023-08-29T00:59:01.086Z,27.31
2023-08-29T01:00:02.964Z,27.31
2023-08-29T01:01:04.808Z,27.30
2023-08-29T01:02:06.661Z,27.30
2023-08-29T01:03:08.540Z,27.29
2023-08-29T01:04:10.422Z,27.27
2023-08-29T01:05:12.282Z,27.27
2023-08-29T01:06:14.522Z,27.27
2023-08-29T01:07:16.357Z,27.26
2023-08-29T01:08:18.092Z,27.26
2023-08-29T01:09:19.984Z,27.26
2023-08-29T01:10:21.829Z,27.26
2023-08-29T01:11:23.658Z,27.25
2023-08-29T01:12:25.478Z,27.25
2023-08-29T01:13:27.390Z,27.24
2023-08-29T01:14:29.256Z,27.24
2023-08-29T01:15:31.123Z,27.21
2023-08-29T01:16:32.942Z,27.23
2023-08-29T01:17:34.864Z,27.21
2023-08-29T01:18:36.749Z,27.20
2023-08-29T01:19:38.589Z,27.20
2023-08-29T01:20:40.587Z,27.20
2023-08-29T01:21:42.429Z,27.21
2023-08-29T01:22:44.150Z,27.19
2023-08-29T01:23:45.978Z,27.18
2023-08-29T01:24:47.838Z,27.19
2023-08-29T01:25:49.608Z,27.18
2023-08-29T01:26:51.557Z,27.17
2023-08-29T01:27:53.381Z,27.16
2023-08-29T01:28:55.239Z,27.16
2023-08-29T01:29:57.072Z,27.18
2023-08-29T01:30:58.999Z,27.17
2023-08-29T01:32:00.821Z,27.17
2023-08-29T01:33:02.695Z,27.16
2023-08-29T01:34:04.487Z,27.15
2023-08-29T01:35:06.213Z,27.14
2023-08-29T01:36:08.103Z,27.14
2023-08-29T01:37:09.953Z,27.13
2023-08-29T01:38:11.785Z,27.12
2023-08-29T01:39:13.714Z,27.12
2023-08-29T01:40:15.975Z,27.11
2023-08-29T01:41:17.949Z,27.10
2023-08-29T01:42:19.794Z,27.08
2023-08-29T01:43:21.751Z,27.07
2023-08-29T01:44:23.594Z,27.07
2023-08-29T01:45:25.522Z,27.06
2023-08-29T01:46:27.541Z,27.06
2023-08-29T01:47:29.388Z,27.08
2023-08-29T01:48:31.174Z,27.06
2023-08-29T01:49:33.227Z,27.06
2023-08-29T01:50:35.163Z,27.05
2023-08-29T01:51:37.054Z,27.05
2023-08-29T01:52:38.874Z,27.05
2023-08-29T01:53:40.718Z,27.05
2023-08-29T01:54:42.555Z,27.06
2023-08-29T01:55:44.388Z,27.06
2023-08-29T01:56:46.257Z,27.04
2023-08-29T01:57:48.101Z,27.04
2023-08-29T01:58:49.939Z,27.04
2023-08-29T01:59:51.790Z,27.02
2023-08-29T02:00:53.734Z,27.01
2023-08-29T02:01:55.707Z,27.00
2023-08-29T02:02:57.565Z,26.99
2023-08-29T02:03:59.436Z,26.98
2023-08-29T02:05:01.232Z,26.96
2023-08-29T02:06:03.105Z,26.98
2023-08-29T02:07:04.966Z,26.92
2023-08-29T02:08:07.084Z,26.92
2023-08-29T02:09:09.122Z,26.95
2023-08-29T02:10:11.235Z,26.94
2023-08-29T02:11:13.066Z,26.94
2023-08-29T02:12:14.942Z,26.94
2023-08-29T02:13:16.762Z,26.93
2023-08-29T02:14:18.580Z,26.93
2023-08-29T02:15:20.428Z,26.93
2023-08-29T02:16:22.501Z,26.93
2023-08-29T02:17:24.350Z,26.93
2023-08-29T02:18:26.168Z,26.92
2023-08-29T02:19:28.013Z,26.93
2023-08-29T02:20:29.842Z,26.92
2023-08-29T02:21:31.667Z,26.92
2023-08-29T02:22:33.524Z,26.92
2023-08-29T02:23:35.561Z,26.92
2023-08-29T02:24:37.396Z,26.91
2023-08-29T02:25:39.224Z,26.91
2023-08-29T02:26:41.071Z,26.92
2023-08-29T02:27:42.915Z,26.91
2023-08-29T02:28:44.810Z,26.91
2023-08-29T02:29:46.660Z,26.90
2023-08-29T02:30:48.517Z,26.90
2023-08-29T02:31:50.316Z,26.91
2023-08-29T02:32:52.221Z,26.88
2023-08-29T02:33:54.016Z,26.88
2023-08-29T02:34:55.852Z,26.89
2023-08-29T02:35:57.679Z,26.88
2023-08-29T02:36:59.625Z,26.88
2023-08-29T02:38:02.739Z,26.88
2023-08-29T02:39:05.020Z,26.88
2023-08-29T02:40:06.944Z,26.88
2023-08-29T02:41:08.779Z,26.88
2023-08-29T02:42:10.613Z,26.88
2023-08-29T02:43:12.466Z,26.88
2023-08-29T02:44:14.284Z,26.90
2023-08-29T02:45:16.116Z,26.90
2023-08-29T02:46:18.294Z,26.90
2023-08-29T02:47:20.172Z,26.91
2023-08-29T02:48:22.025Z,26.91
2023-08-29T02:49:23.873Z,26.90
2023-08-29T02:50:25.721Z,26.90
2023-08-29T02:51:27.543Z,26.90
2023-08-29T02:52:29.369Z,26.87
2023-08-29T02:53:31.225Z,26.84
2023-08-29T02:54:32.980Z,26.82
2023-08-29T02:55:34.827Z,26.80
2023-08-29T02:56:36.665Z,26.78
2023-08-29T02:57:38.489Z,26.75
2023-08-29T02:58:40.353Z,26.72
2023-08-29T02:59:42.105Z,26.70
2023-08-29T03:00:43.977Z,26.67
2023-08-29T03:01:45.791Z,26.64
2023-08-29T03:02:47.615Z,26.61
2023-08-29T03:03:49.631Z,26.59
2023-08-29T03:04:51.464Z,26.57
2023-08-29T03:05:53.300Z,26.57
2023-08-29T03:06:55.227Z,26.56
2023-08-29T03:07:57.105Z,26.55
2023-08-29T03:08:58.976Z,26.55
2023-08-29T03:10:00.827Z,26.55
2023-08-29T03:11:02.734Z,26.56
2023-08-29T03:12:04.502Z,26.58
2023-08-29T03:13:06.356Z,26.58
2023-08-29T03:14:08.304Z,26.59
2023-08-29T03:15:10.157Z,26.60
2023-08-29T03:16:12.495Z,26.61
2023-08-29T03:17:14.427Z,26.59
2023-08-29T03:18:16.262Z,26.63
2023-08-29T03:19:18.206Z,26.64
2023-08-29T03:20:20.108Z,26.65
2023-08-29T03:21:22.006Z,26.67
2023-08-29T03:22:23.760Z,26.69
2023-08-29T03:23:25.648Z,26.70
2023-08-29T03:24:27.580Z,26.71
2023-08-29T03:25:29.431Z,26.73
2023-08-29T03:26:31.277Z,26.74
2023-08-29T03:27:33.080Z,26.75
2023-08-29T03:28:34.980Z,26.76
2023-08-29T03:29:36.808Z,26.77
2023-08-29T03:30:38.718Z,26.78
2023-08-29T03:31:40.549Z,26.79
2023-08-29T03:32:42.436Z,26.79
2023-08-29T03:33:44.293Z,26.81
2023-08-29T03:34:46.149Z,26.82
2023-08-29T03:35:47.978Z,26.83
2023-08-29T03:36:49.915Z,26.83
2023-08-29T03:37:51.642Z,26.85
2023-08-29T03:38:53.458Z,26.84
2023-08-29T03:39:55.320Z,26.85
2023-08-29T03:40:57.147Z,26.86
2023-08-29T03:41:58.982Z,26.88
2023-08-29T03:43:00.811Z,26.89
2023-08-29T03:44:02.637Z,26.90
2023-08-29T03:45:04.492Z,26.89
2023-08-29T03:46:06.522Z,26.87
2023-08-29T03:47:08.375Z,26.87
2023-08-29T03:48:19.532Z,26.86
2023-08-29T03:49:13.736Z,26.87
2023-08-29T03:50:15.702Z,26.87
2023-08-29T03:51:17.527Z,26.90
2023-08-29T03:52:19.249Z,26.89
2023-08-29T03:53:21.071Z,26.91
2023-08-29T03:54:22.893Z,26.91
2023-08-29T03:55:24.770Z,26.90
2023-08-29T03:56:26.619Z,26.85
2023-08-29T03:57:28.522Z,26.81
2023-08-29T03:58:30.373Z,26.80
2023-08-29T03:59:32.204Z,26.82
2023-08-29T04:00:34.104Z,26.83
2023-08-29T04:01:35.922Z,26.82
2023-08-29T04:02:37.756Z,26.80
2023-08-29T04:03:39.747Z,26.80
2023-08-29T04:04:41.988Z,26.81
2023-08-29T04:05:44.102Z,26.81
2023-08-29T04:06:46.056Z,26.84
2023-08-29T04:07:47.888Z,26.86
2023-08-29T04:08:49.726Z,26.87
2023-08-29T04:09:51.513Z,26.88
2023-08-29T04:10:53.323Z,26.90
2023-08-29T04:11:55.144Z,26.91
2023-08-29T04:12:56.966Z,26.92
2023-08-29T04:13:58.808Z,26.93
2023-08-29T04:15:00.649Z,26.95
2023-08-29T04:16:03.070Z,26.97
2023-08-29T04:17:04.939Z,26.96
2023-08-29T04:18:07.023Z,26.94
2023-08-29T04:19:09.133Z,26.91
2023-08-29T04:20:11.567Z,26.84
2023-08-29T04:21:13.471Z,26.75
2023-08-29T04:22:15.304Z,26.71
2023-08-29T04:23:17.135Z,26.69
2023-08-29T04:24:18.990Z,26.62
2023-08-29T04:25:20.847Z,26.57
2023-08-29T04:26:22.728Z,26.52
2023-08-29T04:27:24.548Z,26.48
2023-08-29T04:28:26.409Z,26.44
2023-08-29T04:29:28.140Z,26.42
2023-08-29T04:30:29.962Z,26.39
2023-08-29T04:31:31.895Z,26.39
2023-08-29T04:32:33.788Z,26.39
2023-08-29T04:33:35.638Z,26.39
2023-08-29T04:34:37.475Z,26.42
2023-08-29T04:35:39.181Z,26.48
2023-08-29T04:36:41.196Z,26.47
2023-08-29T04:37:43.047Z,26.44
2023-08-29T04:38:44.787Z,26.41
2023-08-29T04:39:46.618Z,26.39
2023-08-29T04:40:48.442Z,26.38
2023-08-29T04:41:50.305Z,26.38
2023-08-29T04:42:52.048Z,26.38
2023-08-29T04:43:53.903Z,26.34
2023-08-29T04:44:55.635Z,26.34
2023-08-29T04:45:57.576Z,26.37
2023-08-29T04:46:59.554Z,26.39
2023-08-29T04:48:01.501Z,26.39
2023-08-29T04:49:03.351Z,26.41
2023-08-29T04:50:05.188Z,26.41
2023-08-29T04:51:07.044Z,26.42
2023-08-29T04:52:08.913Z,26.47
2023-08-29T04:53:10.802Z,26.46
2023-08-29T04:54:12.626Z,26.47
2023-08-29T04:55:14.474Z,26.47
2023-08-29T04:56:16.317Z,26.47
2023-08-29T04:57:18.201Z,26.40
2023-08-29T04:58:20.158Z,26.42
2023-08-29T04:59:21.994Z,26.42
2023-08-29T05:00:23.833Z,26.41
2023-08-29T05:01:25.721Z,26.37
2023-08-29T05:02:27.678Z,26.33
2023-08-29T05:03:29.419Z,26.30
2023-08-29T05:04:31.255Z,26.29
2023-08-29T05:05:33.106Z,26.29
2023-08-29T05:06:34.935Z,26.23
2023-08-29T05:07:36.927Z,26.17
2023-08-29T05:08:38.786Z,26.15
2023-08-29T05:09:40.619Z,26.16
2023-08-29T05:10:42.481Z,26.15
2023-08-29T05:11:44.310Z,26.15
2023-08-29T05:12:46.183Z,26.16
2023-08-29T05:13:48.013Z,26.18
2023-08-29T05:14:49.866Z,26.19
2023-08-29T05:15:51.759Z,26.22
2023-08-29T05:16:53.560Z,26.24
2023-08-29T05:17:55.462Z,26.26
2023-08-29T05:18:57.166Z,26.27
2023-08-29T05:19:59.009Z,26.24
2023-08-29T05:21:00.965Z,26.24
2023-08-29T05:22:02.691Z,26.22
2023-08-29T05:23:04.553Z,26.22
2023-08-29T05:24:06.288Z,26.22
2023-08-29T05:25:08.056Z,26.23
2023-08-29T05:26:13.099Z,26.24
2023-08-29T05:27:14.044Z,26.24
2023-08-29T05:28:15.918Z,26.21
2023-08-29T05:29:17.804Z,26.18
2023-08-29T05:30:19.736Z,26.18
2023-08-29T05:31:21.600Z,26.21
2023-08-29T05:32:25.712Z,26.25
2023-08-29T05:33:27.138Z,26.27
2023-08-29T05:34:28.978Z,26.30
2023-08-29T05:35:30.814Z,26.33
2023-08-29T05:36:32.676Z,26.35
2023-08-29T05:37:34.514Z,26.40
2023-08-29T05:38:36.281Z,26.42
2023-08-29T05:39:38.124Z,26.46
2023-08-29T05:40:39.947Z,26.48
2023-08-29T05:41:41.795Z,26.49
2023-08-29T05:42:43.653Z,26.50
2023-08-29T05:43:45.598Z,26.49
2023-08-29T05:44:47.360Z,26.52
2023-08-29T05:45:49.218Z,26.56
2023-08-29T05:46:51.177Z,26.59
2023-08-29T05:47:52.976Z,26.63
2023-08-29T05:48:54.856Z,26.65
2023-08-29T05:49:56.702Z,26.65
2023-08-29T05:50:58.557Z,26.66
2023-08-29T05:52:00.408Z,26.65
2023-08-29T05:53:02.267Z,26.65
2023-08-29T05:54:04.254Z,26.66
2023-08-29T05:55:06.083Z,26.70
2023-08-29T05:56:08.625Z,26.72
2023-08-29T05:57:10.471Z,26.78
2023-08-29T05:58:12.307Z,26.85
2023-08-29T05:59:14.193Z,26.91
2023-08-29T06:00:16.655Z,26.94
2023-08-29T06:01:18.565Z,26.97
2023-08-29T06:02:20.452Z,27.02
2023-08-29T06:03:23.439Z,27.08
2023-08-29T06:04:25.597Z,27.14
2023-08-29T06:05:27.438Z,27.16
2023-08-29T06:06:29.268Z,27.20
2023-08-29T06:07:31.023Z,27.23
2023-08-29T06:08:32.871Z,27.26
2023-08-29T06:09:34.737Z,27.28
2023-08-29T06:10:36.564Z,27.27
2023-08-29T06:11:38.330Z,27.30
2023-08-29T06:12:40.181Z,27.32
2023-08-29T06:13:42.007Z,27.33
2023-08-29T06:14:43.875Z,27.36
2023-08-29T06:15:45.708Z,27.39
2023-08-29T06:16:47.588Z,27.39
2023-08-29T06:17:49.318Z,27.41
2023-08-29T06:18:51.146Z,27.41
2023-08-29T06:19:53.011Z,27.48
2023-08-29T06:20:54.881Z,27.52
2023-08-29T06:21:56.723Z,27.57
2023-08-29T06:22:58.561Z,27.61
2023-08-29T06:24:00.451Z,27.64
2023-08-29T06:25:02.284Z,27.69
2023-08-29T06:26:04.134Z,27.71
2023-08-29T06:27:05.970Z,27.74
2023-08-29T06:28:08.021Z,27.76
2023-08-29T06:29:10.055Z,27.79
2023-08-29T06:30:11.921Z,27.83
2023-08-29T06:31:13.797Z,27.88
2023-08-29T06:32:15.630Z,27.92
2023-08-29T06:33:17.464Z,27.96
2023-08-29T06:34:19.304Z,28.00
2023-08-29T06:35:21.169Z,28.02
2023-08-29T06:36:23.014Z,28.04
2023-08-29T06:37:24.841Z,28.05
2023-08-29T06:38:26.662Z,28.05
2023-08-29T06:39:28.592Z,28.06
2023-08-29T06:40:30.744Z,28.10
2023-08-29T06:41:32.578Z,28.14
2023-08-29T06:42:34.525Z,28.17
2023-08-29T06:43:36.425Z,28.20
2023-08-29T06:44:38.309Z,28.21
2023-08-29T06:45:40.281Z,28.21
2023-08-29T06:46:42.125Z,28.21
2023-08-29T06:47:44.004Z,28.23
2023-08-29T06:48:45.833Z,28.23
2023-08-29T06:49:47.656Z,28.25
2023-08-29T06:50:49.523Z,28.28
2023-08-29T06:51:51.377Z,28.29
2023-08-29T06:52:53.228Z,28.28
2023-08-29T06:53:55.078Z,28.28
2023-08-29T06:54:56.886Z,28.33
2023-08-29T06:55:58.776Z,28.35
2023-08-29T06:57:00.654Z,28.37
2023-08-29T06:58:02.457Z,28.39
2023-08-29T06:59:04.289Z,28.42
2023-08-29T07:00:06.644Z,28.45
2023-08-29T07:01:08.583Z,28.46
2023-08-29T07:02:10.478Z,28.46
2023-08-29T07:03:12.434Z,28.47
2023-08-29T07:04:14.367Z,28.51
2023-08-29T07:05:16.225Z,28.56
2023-08-29T07:06:18.076Z,28.60
2023-08-29T07:07:19.903Z,28.66
2023-08-29T07:08:21.727Z,28.72
2023-08-29T07:09:23.571Z,28.75
2023-08-29T07:10:25.416Z,28.77
2023-08-29T07:11:27.284Z,28.78
2023-08-29T07:12:29.110Z,28.83
2023-08-29T07:13:30.954Z,28.87
2023-08-29T07:14:32.788Z,28.92
2023-08-29T07:15:34.653Z,28.98
2023-08-29T07:16:36.624Z,29.03
2023-08-29T07:17:38.490Z,29.06
2023-08-29T07:18:40.310Z,29.07
2023-08-29T07:19:42.153Z,29.06
2023-08-29T07:20:44.351Z,29.05
2023-08-29T07:21:46.243Z,29.05
2023-08-29T07:22:48.199Z,29.06
2023-08-29T07:23:50.024Z,29.07
2023-08-29T07:24:51.867Z,29.12
2023-08-29T07:25:53.905Z,29.15
2023-08-29T07:26:55.891Z,29.21
2023-08-29T07:27:57.769Z,29.23
2023-08-29T07:28:59.626Z,29.23
2023-08-29T07:30:01.569Z,29.24
2023-08-29T07:31:03.444Z,29.25
2023-08-29T07:32:05.388Z,29.26
2023-08-29T07:33:07.244Z,29.26
2023-08-29T07:34:09.843Z,29.28
2023-08-29T07:35:11.723Z,29.30
2023-08-29T07:36:13.861Z,29.34
2023-08-29T07:37:15.734Z,29.39
2023-08-29T07:38:18.676Z,29.43
2023-08-29T07:39:20.572Z,29.48
2023-08-29T07:40:22.388Z,29.53
2023-08-29T07:41:24.248Z,29.57
2023-08-29T07:42:26.118Z,29.60
2023-08-29T07:43:27.979Z,29.61
2023-08-29T07:44:29.786Z,29.60
2023-08-29T07:45:31.618Z,29.61
2023-08-29T07:46:33.576Z,29.60
2023-08-29T07:47:35.501Z,29.61
2023-08-29T07:48:37.356Z,29.61
2023-08-29T07:49:39.199Z,29.62
2023-08-29T07:50:41.027Z,29.64
2023-08-29T07:51:42.846Z,29.66
2023-08-29T07:52:44.726Z,29.67
2023-08-29T07:53:46.724Z,29.67
2023-08-29T07:54:48.518Z,29.69
2023-08-29T07:55:50.356Z,29.68
2023-08-29T07:56:52.235Z,29.69
2023-08-29T07:57:54.282Z,29.72
2023-08-29T07:58:56.145Z,29.73
2023-08-29T07:59:58.185Z,29.76
2023-08-29T08:01:00.519Z,29.77
2023-08-29T08:02:02.549Z,29.78
2023-08-29T08:03:04.640Z,29.79
2023-08-29T08:04:06.566Z,29.84
2023-08-29T08:05:08.371Z,29.85
2023-08-29T08:06:10.519Z,29.87
2023-08-29T08:07:12.353Z,29.89
2023-08-29T08:08:14.233Z,29.87
2023-08-29T08:09:16.073Z,29.87
2023-08-29T08:10:17.934Z,29.94
2023-08-29T08:11:19.758Z,29.94
2023-08-29T08:12:21.603Z,29.98
2023-08-29T08:13:23.381Z,30.02
2023-08-29T08:14:25.209Z,30.04
2023-08-29T08:15:27.043Z,30.07
2023-08-29T08:16:28.930Z,30.09
2023-08-29T08:17:30.865Z,30.10
2023-08-29T08:18:32.702Z,30.15
2023-08-29T08:19:34.534Z,30.16
2023-08-29T08:20:36.380Z,30.17
2023-08-29T08:21:38.336Z,30.18
2023-08-29T08:22:40.167Z,30.20
2023-08-29T08:23:41.934Z,30.22
2023-08-29T08:24:43.689Z,30.25
2023-08-29T08:25:45.509Z,30.24
2023-08-29T08:26:47.350Z,30.26
2023-08-29T08:27:49.178Z,30.27
2023-08-29T08:28:51.047Z,30.28
2023-08-29T08:29:52.884Z,30.28
2023-08-29T08:30:54.728Z,30.28
2023-08-29T08:31:56.576Z,30.28
2023-08-29T08:32:58.375Z,30.28
2023-08-29T08:34:00.242Z,30.28
2023-08-29T08:35:02.085Z,30.31
2023-08-29T08:36:03.931Z,30.36
2023-08-29T08:37:05.756Z,30.40
2023-08-29T08:38:07.671Z,30.43
2023-08-29T08:39:09.902Z,30.44
2023-08-29T08:40:12.044Z,30.46
2023-08-29T08:41:13.966Z,30.47
2023-08-29T08:42:16.501Z,30.45
2023-08-29T08:43:18.372Z,30.43
2023-08-29T08:44:20.326Z,30.44
2023-08-29T08:45:22.235Z,30.45
2023-08-29T08:46:24.172Z,30.48
2023-08-29T08:47:26.104Z,30.52
2023-08-29T08:48:27.907Z,30.54
2023-08-29T08:49:29.826Z,30.56
2023-08-29T08:50:31.808Z,30.57
2023-08-29T08:51:33.636Z,30.60
2023-08-29T08:52:35.473Z,30.62
2023-08-29T08:53:37.329Z,30.61
2023-08-29T08:54:39.241Z,30.63
2023-08-29T08:55:41.089Z,30.65
2023-08-29T08:56:43.036Z,30.67
2023-08-29T08:57:44.789Z,30.69
2023-08-29T08:58:46.628Z,30.73
2023-08-29T08:59:48.500Z,30.78
2023-08-29T09:00:50.448Z,30.80
2023-08-29T09:01:52.312Z,30.83
2023-08-29T09:02:54.250Z,30.87
2023-08-29T09:03:56.105Z,30.90
2023-08-29T09:04:57.849Z,30.92
2023-08-29T09:05:59.696Z,30.96
2023-08-29T09:07:01.540Z,31.01
2023-08-29T09:08:03.318Z,31.06
2023-08-29T09:09:05.142Z,31.10
2023-08-29T09:10:07.146Z,31.13
2023-08-29T09:11:09.015Z,31.15
2023-08-29T09:12:10.864Z,31.16
2023-08-29T09:13:12.719Z,31.14
2023-08-29T09:14:14.577Z,31.12
2023-08-29T09:15:16.439Z,31.12
2023-08-29T09:16:18.347Z,31.10
2023-08-29T09:17:20.127Z,31.10
2023-08-29T09:18:21.891Z,31.11
2023-08-29T09:19:23.733Z,31.14
2023-08-29T09:20:25.607Z,31.16
2023-08-29T09:21:27.444Z,31.19
2023-08-29T09:22:29.318Z,31.22
2023-08-29T09:23:31.150Z,31.26
2023-08-29T09:24:32.981Z,31.28
2023-08-29T09:25:34.856Z,31.31
2023-08-29T09:26:36.823Z,31.30
2023-08-29T09:27:38.704Z,31.30
2023-08-29T09:28:40.545Z,31.27
2023-08-29T09:29:42.378Z,31.26
2023-08-29T09:30:44.264Z,31.26
2023-08-29T09:31:46.136Z,31.30
2023-08-29T09:32:48.002Z,31.33
2023-08-29T09:33:49.804Z,31.35
2023-08-29T09:34:51.663Z,31.38
2023-08-29T09:35:53.551Z,31.41
2023-08-29T09:36:55.612Z,31.44
2023-08-29T09:37:57.465Z,31.48
2023-08-29T09:38:59.202Z,31.49
2023-08-29T09:40:01.033Z,31.52
2023-08-29T09:41:02.940Z,31.53
2023-08-29T09:42:04.800Z,31.53
2023-08-29T09:43:06.607Z,31.52
2023-08-29T09:44:08.487Z,31.53
2023-08-29T09:45:10.222Z,31.55
2023-08-29T09:46:13.061Z,31.56
2023-08-29T09:47:14.860Z,31.57
2023-08-29T09:48:16.761Z,31.60
2023-08-29T09:49:18.575Z,31.59
2023-08-29T09:50:20.417Z,31.61
2023-08-29T09:51:22.285Z,31.65
2023-08-29T09:52:25.332Z,31.70
2023-08-29T09:53:27.237Z,31.74
2023-08-29T09:54:29.083Z,31.81
2023-08-29T09:55:30.839Z,31.84
2023-08-29T09:56:32.733Z,31.87
2023-08-29T09:57:34.574Z,31.87
2023-08-29T09:58:36.321Z,31.89
2023-08-29T09:59:38.181Z,31.90
2023-08-29T10:00:40.231Z,31.89
2023-08-29T10:01:42.167Z,31.90
2023-08-29T10:02:44.159Z,31.91
2023-08-29T10:03:46.095Z,31.94
2023-08-29T10:04:47.963Z,31.95
2023-08-29T10:05:49.841Z,32.00
2023-08-29T10:06:51.748Z,31.96
2023-08-29T10:07:53.600Z,32.02
2023-08-29T10:08:55.815Z,32.02
2023-08-29T10:09:58.309Z,32.04
2023-08-29T10:11:00.639Z,32.04
2023-08-29T10:12:02.624Z,32.06
2023-08-29T10:13:04.473Z,32.09
2023-08-29T10:14:06.333Z,32.11
2023-08-29T10:15:08.161Z,32.12
2023-08-29T10:16:10.327Z,32.14
2023-08-29T10:17:25.423Z,32.15
2023-08-29T10:18:15.800Z,32.14
2023-08-29T10:19:19.074Z,32.15
2023-08-29T10:20:21.012Z,32.13
2023-08-29T10:21:22.770Z,32.11
2023-08-29T10:22:24.676Z,32.09
2023-08-29T10:23:26.588Z,32.12
2023-08-29T10:24:28.369Z,32.15
2023-08-29T10:25:30.252Z,32.18
2023-08-29T10:26:32.239Z,32.19
2023-08-29T10:27:34.267Z,32.18
2023-08-29T10:28:36.081Z,32.15
2023-08-29T10:29:37.984Z,32.11
2023-08-29T10:30:39.819Z,32.09
2023-08-29T10:31:41.644Z,32.09
2023-08-29T10:32:43.596Z,32.09
2023-08-29T10:33:45.665Z,32.10
2023-08-29T10:34:47.521Z,32.10
2023-08-29T10:35:49.456Z,32.12
2023-08-29T10:36:51.460Z,32.11
2023-08-29T10:37:53.579Z,32.11
2023-08-29T10:38:55.610Z,32.12
2023-08-29T10:39:57.644Z,32.11
2023-08-29T10:40:59.756Z,32.11
2023-08-29T10:42:01.859Z,32.11
2023-08-29T10:43:03.987Z,32.10
2023-08-29T10:44:06.077Z,32.11
2023-08-29T10:45:07.925Z,32.12
2023-08-29T10:46:10.656Z,32.13
2023-08-29T10:47:12.800Z,32.13
2023-08-29T10:48:14.829Z,32.14
2023-08-29T10:49:16.932Z,32.15
2023-08-29T10:50:19.120Z,32.20
2023-08-29T10:51:21.097Z,32.21
2023-08-29T10:52:23.049Z,32.22
2023-08-29T10:53:24.932Z,32.24
2023-08-29T10:54:26.824Z,32.25
2023-08-29T10:55:28.696Z,32.24
2023-08-29T10:56:30.675Z,32.22
2023-08-29T10:57:32.472Z,32.18
2023-08-29T10:58:34.388Z,32.15
2023-08-29T10:59:36.114Z,32.09
2023-08-29T11:00:38.007Z,32.13
2023-08-29T11:01:39.918Z,32.14
2023-08-29T11:02:41.794Z,32.14
2023-08-29T11:03:43.742Z,32.14
2023-08-29T11:04:55.973Z,32.18
2023-08-29T11:05:49.176Z,32.19
2023-08-29T11:06:50.967Z,32.20
2023-08-29T11:07:52.828Z,32.19
2023-08-29T11:08:56.117Z,32.19
2023-08-29T11:09:58.241Z,32.18
2023-08-29T11:11:00.157Z,32.18
2023-08-29T11:12:02.000Z,32.19
2023-08-29T11:13:03.748Z,32.18
2023-08-29T11:14:05.632Z,32.20
2023-08-29T11:15:09.419Z,32.20
2023-08-29T11:16:11.848Z,32.20
2023-08-29T11:17:13.666Z,32.20
2023-08-29T11:18:15.520Z,32.19
2023-08-29T11:19:17.419Z,32.20
2023-08-29T11:20:19.659Z,32.21
2023-08-29T11:21:21.509Z,32.20
2023-08-29T11:22:23.357Z,32.20
2023-08-29T11:23:25.194Z,32.20
2023-08-29T11:24:27.083Z,32.19
2023-08-29T11:25:28.952Z,32.19
2023-08-29T11:26:31.317Z,32.17
2023-08-29T11:27:33.223Z,32.14
2023-08-29T11:28:35.054Z,32.12
2023-08-29T11:29:37.002Z,32.12
2023-08-29T11:30:43.710Z,32.11
2023-08-29T11:31:42.558Z,32.09
2023-08-29T11:32:44.378Z,32.09
2023-08-29T11:33:46.256Z,32.09
2023-08-29T11:34:48.020Z,32.07
2023-08-29T11:35:49.757Z,32.07
2023-08-29T11:36:51.613Z,32.07
2023-08-29T11:37:53.468Z,32.09
2023-08-29T11:38:55.297Z,32.11
2023-08-29T11:39:57.084Z,32.13
2023-08-29T11:41:11.256Z,32.14
2023-08-29T11:42:09.837Z,32.14
2023-08-29T11:43:33.046Z,32.14
2023-08-29T11:44:22.674Z,32.15
2023-08-29T11:45:44.120Z,32.13
2023-08-29T11:46:18.032Z,32.14
2023-08-29T11:47:19.804Z,32.13
2023-08-29T11:48:21.661Z,32.15
2023-08-29T11:49:23.496Z,32.15
2023-08-29T11:50:25.384Z,32.19
2023-08-29T11:51:27.252Z,32.22
2023-08-29T11:52:29.089Z,32.26
2023-08-29T11:53:30.953Z,32.29
2023-08-29T11:54:32.783Z,32.33
2023-08-29T11:55:34.748Z,32.35
2023-08-29T11:56:36.597Z,32.34
2023-08-29T11:57:38.433Z,32.34
2023-08-29T11:58:40.265Z,32.37
2023-08-29T11:59:42.131Z,32.39
2023-08-29T12:00:44.026Z,32.40
2023-08-29T12:01:45.866Z,32.39
2023-08-29T12:02:47.762Z,32.37
2023-08-29T12:03:49.675Z,32.37
2023-08-29T12:04:51.454Z,32.36
2023-08-29T12:05:53.276Z,32.36
2023-08-29T12:06:55.115Z,32.34
2023-08-29T12:07:56.874Z,32.31
2023-08-29T12:09:00.244Z,32.29
2023-08-29T12:10:02.294Z,32.29
2023-08-29T12:11:04.177Z,32.28
2023-08-29T12:12:06.016Z,32.28
2023-08-29T12:13:07.870Z,32.29
2023-08-29T12:14:09.714Z,32.28
2023-08-29T12:15:11.626Z,32.31
2023-08-29T12:16:13.678Z,32.31
2023-08-29T12:17:15.650Z,32.34
2023-08-29T12:18:17.538Z,32.36
2023-08-29T12:19:19.338Z,32.37
2023-08-29T12:20:21.188Z,32.35
2023-08-29T12:21:23.092Z,32.29
2023-08-29T12:22:24.928Z,32.29
2023-08-29T12:23:26.783Z,32.33
2023-08-29T12:24:28.683Z,32.33
2023-08-29T12:25:30.562Z,32.33
2023-08-29T12:26:32.607Z,32.32
2023-08-29T12:27:34.761Z,32.32
2023-08-29T12:28:36.583Z,32.33
2023-08-29T12:29:38.348Z,32.33
2023-08-29T12:30:40.260Z,32.32
2023-08-29T12:31:42.054Z,32.31
2023-08-29T12:32:44.060Z,32.31
2023-08-29T12:33:46.070Z,32.31
2023-08-29T12:34:47.913Z,32.28
2023-08-29T12:35:49.765Z,32.28
2023-08-29T12:36:51.746Z,32.28
2023-08-29T12:37:53.617Z,32.28
2023-08-29T12:38:55.487Z,32.28
2023-08-29T12:39:57.324Z,32.28
2023-08-29T12:40:59.186Z,32.29
2023-08-29T12:42:01.058Z,32.31
2023-08-29T12:43:02.910Z,32.29
2023-08-29T12:44:04.768Z,32.28
2023-08-29T12:45:06.616Z,32.27
2023-08-29T12:46:08.504Z,32.27
2023-08-29T12:47:10.358Z,32.27
2023-08-29T12:48:12.264Z,32.27
2023-08-29T12:49:14.085Z,32.24
2023-08-29T12:50:16.190Z,32.24
2023-08-29T12:51:17.960Z,32.23
2023-08-29T12:52:19.817Z,32.24
2023-08-29T12:53:21.668Z,32.23
2023-08-29T12:54:23.429Z,32.22
2023-08-29T12:55:25.246Z,32.21
2023-08-29T12:56:27.099Z,32.21
2023-08-29T12:57:28.984Z,32.22
2023-08-29T12:58:30.836Z,32.22
2023-08-29T12:59:32.662Z,32.22
2023-08-29T13:00:34.709Z,32.25
2023-08-29T13:01:36.671Z,32.27
2023-08-29T13:02:38.774Z,32.27
2023-08-29T13:03:40.700Z,32.23
2023-08-29T13:04:42.651Z,32.26
2023-08-29T13:05:44.489Z,32.24
2023-08-29T13:06:46.336Z,32.24
2023-08-29T13:07:48.187Z,32.23
2023-08-29T13:08:50.033Z,32.23
2023-08-29T13:09:51.892Z,32.22
2023-08-29T13:10:53.779Z,32.21
2023-08-29T13:11:55.610Z,32.23
2023-08-29T13:12:57.482Z,32.25
2023-08-29T13:13:59.350Z,32.26
2023-08-29T13:15:01.151Z,32.26
2023-08-29T13:16:03.010Z,32.27
2023-08-29T13:17:04.841Z,32.27